Time;durP1;ratioP1;P1;durP2;ratioP2;P2;SDS_P1;SDS_P2;PMS_P1;PMS_P2;Temp;Humidity;BMP_temperature;BMP_pressure;BME280_temperature;BME280_humidity;BME280_pressure;Samples;Min_cycle;Max_cycle;Signal;HPM_P1;HPM_P2
2021/09/10 00:04:56;;;;;;;12.90;7.90;;;16.80;99.90;;;;;;21022557;28;20059;-78
2021/09/10 00:14:57;;;;;;;9.07;7.33;;;16.20;99.90;;;;;;21018611;28;20064;-78
2021/09/10 00:24:58;;;;;;;12.20;7.77;;;16.20;99.90;;;;;;21014449;28;20048;-78
2021/09/10 00:34:59;;;;;;;10.67;7.70;;;15.40;99.90;;;;;;21009499;28;20087;-77
2021/09/10 00:45:00;;;;;;;13.27;7.90;;;15.30;99.90;;;;;;21007980;28;20548;-77
2021/09/10 00:55:01;;;;;;;13.10;7.80;;;15.10;99.90;;;;;;21002178;28;20060;-78
2021/09/10 01:05:02;;;;;;;11.57;7.50;;;14.90;99.90;;;;;;21006718;28;20055;-79
2021/09/10 01:15:04;;;;;;;14.10;7.93;;;15.10;99.90;;;;;;21025175;28;20037;-78
2021/09/10 01:25:10;;;;;;;12.05;8.68;;;15.00;99.90;;;;;;21020443;28;20067;-78
2021/09/10 01:35:12;;;;;;;14.70;7.22;;;15.20;99.90;;;;;;21027393;28;20028;-79
2021/09/10 01:45:15;;;;;;;30.20;8.33;;;15.40;99.90;;;;;;21026203;28;20031;-78
2021/09/10 01:55:16;;;;;;;12.75;7.35;;;15.50;99.90;;;;;;20994625;28;20033;-78
2021/09/10 02:05:17;;;;;;;13.47;7.90;;;15.70;99.90;;;;;;21039481;28;20127;-78
2021/09/10 02:15:18;;;;;;;15.07;8.37;;;15.80;99.90;;;;;;21019304;28;20043;-78
2021/09/10 02:25:18;;;;;;;10.23;7.43;;;15.80;99.90;;;;;;21017085;28;20043;-78
2021/09/10 02:35:19;;;;;;;12.80;8.57;;;15.90;99.90;;;;;;21028697;28;20024;-77
2021/09/10 02:45:20;;;;;;;12.33;8.00;;;15.80;99.90;;;;;;21053561;28;20333;-76
2021/09/10 02:55:21;;;;;;;11.33;8.00;;;15.70;99.90;;;;;;21015894;28;20032;-77
2021/09/10 03:05:22;;;;;;;12.47;8.90;;;15.80;99.90;;;;;;21020630;28;20028;-78
2021/09/10 03:15:23;;;;;;;13.60;8.20;;;15.70;99.90;;;;;;20976021;28;20091;-78
2021/09/10 03:25:24;;;;;;;12.30;8.63;;;15.60;99.90;;;;;;21014861;28;20036;-77
2021/09/10 03:35:24;;;;;;;13.87;8.47;;;15.60;99.90;;;;;;21002387;28;20024;-77
2021/09/10 03:45:25;;;;;;;12.77;8.73;;;15.40;99.90;;;;;;21003272;28;20028;-77
2021/09/10 03:55:26;;;;;;;13.83;8.90;;;15.40;99.90;;;;;;21019716;28;20033;-77
2021/09/10 04:05:27;;;;;;;13.53;9.10;;;15.40;99.90;;;;;;21007580;28;20025;-77
2021/09/10 04:15:29;;;;;;;15.27;9.80;;;15.30;99.90;;;;;;21004003;28;20032;-77
2021/09/10 04:25:30;;;;;;;15.20;9.80;;;15.50;99.90;;;;;;21003357;28;20048;-77
2021/09/10 04:35:31;;;;;;;9.80;7.70;;;15.60;99.90;;;;;;20998058;28;20072;-77
2021/09/10 04:45:32;;;;;;;15.83;9.27;;;15.50;99.90;;;;;;20965725;28;20032;-77
2021/09/10 04:55:33;;;;;;;15.77;9.17;;;15.40;99.90;;;;;;20982400;28;20115;-77
2021/09/10 05:05:33;;;;;;;14.57;10.20;;;15.60;99.90;;;;;;20999601;28;20036;-78
2021/09/10 05:15:34;;;;;;;17.10;9.57;;;15.60;99.90;;;;;;20996833;28;20032;-77
2021/09/10 05:25:35;;;;;;;13.10;8.93;;;15.60;99.90;;;;;;20993368;28;20028;-77
2021/09/10 05:35:36;;;;;;;12.17;8.63;;;15.60;99.90;;;;;;20993147;28;20032;-77
2021/09/10 05:45:37;;;;;;;17.20;10.07;;;15.60;99.90;;;;;;21045785;22;20476;-75
2021/09/10 05:55:38;;;;;;;16.03;9.70;;;15.70;99.90;;;;;;21082166;28;20119;-75
2021/09/10 06:05:40;;;;;;;19.07;12.43;;;15.80;99.90;;;;;;21157255;28;20031;-75
2021/09/10 06:15:41;;;;;;;18.80;13.20;;;15.80;99.90;;;;;;21156926;28;20508;-74
2021/09/10 06:25:41;;;;;;;18.57;12.87;;;15.90;99.90;;;;;;21156628;28;20023;-74
2021/09/10 06:35:42;;;;;;;23.93;15.33;;;15.90;99.90;;;;;;21154017;28;20020;-74
2021/09/10 06:45:44;;;;;;;24.13;13.90;;;15.90;99.90;;;;;;21130050;28;20035;-74
2021/09/10 06:55:45;;;;;;;23.02;14.25;;;16.00;99.90;;;;;;21152678;28;20153;-74
2021/09/10 07:05:46;;;;;;;17.77;12.80;;;16.20;99.90;;;;;;21152133;28;20061;-74
2021/09/10 07:15:47;;;;;;;18.60;13.50;;;16.50;99.90;;;;;;21151010;28;20031;-75
2021/09/10 07:25:48;;;;;;;28.80;14.27;;;16.90;99.90;;;;;;21167534;28;20051;-75
2021/09/10 07:35:49;;;;;;;17.83;12.80;;;17.00;99.90;;;;;;21167594;28;20031;-73
2021/09/10 07:45:49;;;;;;;20.43;14.00;;;17.20;99.90;;;;;;21166950;28;20066;-74
2021/09/10 07:55:50;;;;;;;22.17;14.70;;;17.30;99.90;;;;;;21147415;28;20445;-74
2021/09/10 08:05:51;;;;;;;24.70;14.10;;;17.30;99.90;;;;;;21147271;28;20572;-75
2021/09/10 08:15:52;;;;;;;23.07;14.70;;;17.50;99.90;;;;;;21145405;28;20123;-73
2021/09/10 08:25:53;;;;;;;19.20;15.03;;;18.10;99.90;;;;;;21163144;28;20027;-75
2021/09/10 08:35:54;;;;;;;22.10;13.60;;;18.50;99.90;;;;;;21162751;28;20039;-75
2021/09/10 08:45:59;;;;;;;23.17;14.67;;;19.10;99.90;;;;;;21143836;28;20450;-75
2021/09/10 08:56:00;;;;;;;22.75;14.50;;;19.50;99.90;;;;;;21161171;28;20060;-74
2021/09/10 09:06:01;;;;;;;21.07;14.33;;;19.80;99.90;;;;;;21141692;28;20032;-75
2021/09/10 09:16:11;;;;;;;28.42;14.75;;;20.10;99.90;;;;;;21159823;28;20050;-75
2021/09/10 09:26:20;;;;;;;21.50;14.30;;;19.90;99.90;;;;;;21159278;28;20027;-74
2021/09/10 09:36:21;;;;;;;20.95;14.40;;;19.80;99.90;;;;;;21158553;28;20500;-75
2021/09/10 09:46:23;;;;;;;22.10;13.10;;;20.00;99.90;;;;;;21158209;28;20028;-74
2021/09/10 09:56:25;;;;;;;18.63;11.60;;;20.50;99.90;;;;;;21157960;28;20074;-75
2021/09/10 10:06:27;;;;;;;25.63;16.27;;;20.60;99.90;;;;;;21157945;28;20078;-76
2021/09/10 10:16:39;;;;;;;19.55;12.23;;;20.90;99.90;;;;;;21165990;28;20036;-74
2021/09/10 10:26:40;;;;;;;19.48;11.05;;;21.50;99.90;;;;;;21174213;28;20045;-75
2021/09/10 10:36:41;;;;;;;13.98;10.13;;;21.90;99.90;;;;;;21155425;28;20028;-74
2021/09/10 10:46:42;;;;;;;13.70;10.10;;;22.40;99.90;;;;;;21180042;28;20073;-75
2021/09/10 10:56:43;;;;;;;13.87;8.67;;;23.00;99.90;;;;;;21173013;28;20081;-75
2021/09/10 11:06:45;;;;;;;10.00;7.78;;;22.60;99.90;;;;;;21171840;28;20032;-76
2021/09/10 11:16:46;;;;;;;8.85;6.40;;;25.00;99.90;;;;;;21154479;28;20027;-75
2021/09/10 11:26:46;;;;;;;13.57;6.05;;;26.10;99.90;;;;;;21152573;28;20047;-75
2021/09/10 11:36:48;;;;;;;10.10;5.70;;;26.50;99.90;;;;;;21172803;28;20449;-76
2021/09/10 11:46:49;;;;;;;7.20;5.28;;;26.10;99.90;;;;;;21158083;22;20052;-77
2021/09/10 11:56:50;;;;;;;7.20;5.80;;;25.30;99.90;;;;;;21098549;28;20047;-77
2021/09/10 12:06:53;;;;;;;7.10;5.30;;;25.70;99.90;;;;;;21165696;28;20086;-75
2021/09/10 12:17:11;;;;;;;7.45;4.95;;;26.30;99.90;;;;;;21147408;28;20684;-77
2021/09/10 12:27:14;;;;;;;6.93;5.65;;;26.20;99.90;;;;;;21164053;28;20027;-76
2021/09/10 12:37:22;;;;;;;6.65;5.47;;;25.80;99.90;;;;;;21145377;28;20035;-77
2021/09/10 12:47:24;;;;;;;8.23;5.60;;;26.60;99.90;;;;;;21162984;27;20066;-78
2021/09/10 12:57:26;;;;;;;8.90;5.57;;;25.40;99.90;;;;;;21149523;28;20513;-77
2021/09/10 13:07:27;;;;;;;;;;;24.40;99.90;;;;;;21161856;28;20054;-78
2021/09/10 13:17:29;;;;;;;9.95;6.85;;;24.00;99.90;;;;;;21106694;28;19916;-78
2021/09/10 13:27:31;;;;;;;15.95;7.20;;;23.60;99.90;;;;;;21142162;28;20036;-78
2021/09/10 13:37:33;;;;;;;10.52;7.35;;;23.50;99.90;;;;;;21168905;28;20038;-78
2021/09/10 13:47:34;;;;;;;13.55;7.47;;;23.00;99.90;;;;;;21149091;28;20059;-77
2021/09/10 13:57:36;;;;;;;11.43;8.20;;;22.70;99.90;;;;;;21111691;28;20481;-77
2021/09/10 14:07:37;;;;;;;17.50;9.35;;;21.70;99.90;;;;;;21080840;28;20045;-76
2021/09/10 14:17:38;;;;;;;17.63;11.07;;;21.30;99.90;;;;;;21137424;28;20299;-76
2021/09/10 14:27:39;;;;;;;18.13;11.87;;;20.40;99.90;;;;;;21138077;28;20088;-76
2021/09/10 14:37:40;;;;;;;19.53;12.27;;;20.00;99.90;;;;;;21136935;28;20031;-76
2021/09/10 14:47:41;;;;;;;17.17;12.17;;;19.80;99.90;;;;;;21117354;28;20043;-76
2021/09/10 14:57:42;;;;;;;21.25;13.23;;;19.10;99.90;;;;;;21134174;28;20131;-77
2021/09/10 15:07:43;;;;;;;26.13;14.13;;;19.10;99.90;;;;;;21149301;28;20126;-77
2021/09/10 15:17:44;;;;;;;24.70;14.73;;;19.00;99.90;;;;;;21128602;28;20020;-76
2021/09/10 15:27:45;;;;;;;20.42;13.50;;;19.50;99.90;;;;;;21129442;28;20043;-77
2021/09/10 15:37:46;;;;;;;29.90;15.02;;;19.90;99.90;;;;;;21150832;28;20063;-77
2021/09/10 15:47:47;;;;;;;15.90;11.40;;;19.90;99.90;;;;;;21139065;28;20044;-77
2021/09/10 15:57:49;;;;;;;20.20;13.33;;;19.60;99.90;;;;;;21146473;28;20046;-77
2021/09/10 16:07:50;;;;;;;19.38;13.02;;;19.40;99.90;;;;;;21167895;28;20089;-77
2021/09/10 16:17:52;;;;;;;17.05;12.20;;;19.20;99.90;;;;;;21121543;28;20404;-77
2021/09/10 16:27:53;;;;;;;19.25;12.40;;;19.20;99.90;;;;;;21155190;28;20061;-77
2021/09/10 16:37:53;;;;;;;16.80;12.70;;;19.20;99.90;;;;;;21153783;28;20693;-76
2021/09/10 16:47:54;;;;;;;21.17;12.83;;;19.20;99.90;;;;;;21150556;28;20528;-77
2021/09/10 16:57:55;;;;;;;18.33;12.97;;;19.10;99.90;;;;;;21132311;28;20035;-77
2021/09/10 17:07:56;;;;;;;18.67;12.90;;;18.90;99.90;;;;;;21152261;28;20043;-77
2021/09/10 17:17:57;;;;;;;21.27;14.67;;;18.80;99.90;;;;;;21142547;28;20053;-76
2021/09/10 17:27:57;;;;;;;25.90;14.83;;;18.70;99.90;;;;;;21120072;28;20520;-76
2021/09/10 17:37:58;;;;;;;22.60;14.57;;;18.70;99.90;;;;;;21138511;28;20039;-76
2021/09/10 17:47:59;;;;;;;16.93;12.07;;;18.60;99.90;;;;;;21123544;22;20430;-77
2021/09/10 17:58:00;;;;;;;14.50;10.73;;;18.40;99.90;;;;;;21115385;28;20081;-79
2021/09/10 18:08:01;;;;;;;17.80;12.53;;;18.30;99.90;;;;;;21158104;28;20571;-79
2021/09/10 18:18:02;;;;;;;16.97;12.47;;;18.20;99.90;;;;;;21135565;28;20055;-79
2021/09/10 18:28:03;;;;;;;15.93;11.90;;;18.00;99.90;;;;;;21149977;28;20039;-79
2021/09/10 18:38:03;;;;;;;16.63;11.13;;;17.80;99.90;;;;;;21166241;28;20065;-80
2021/09/10 18:48:04;;;;;;;16.47;12.13;;;17.40;99.90;;;;;;21189428;28;20521;-79
2021/09/10 18:58:05;;;;;;;17.27;12.30;;;17.40;99.90;;;;;;21183458;28;20028;-81
2021/09/10 19:08:06;;;;;;;17.07;12.77;;;17.50;99.90;;;;;;21161098;28;20028;-78
2021/09/10 19:18:07;;;;;;;15.30;11.77;;;17.60;99.90;;;;;;21163181;28;20032;-78
2021/09/10 19:28:08;;;;;;;19.40;14.07;;;17.50;99.90;;;;;;21156317;28;20031;-79
2021/09/10 19:38:08;;;;;;;18.57;11.33;;;17.20;99.90;;;;;;21167232;28;20062;-79
2021/09/10 19:48:09;;;;;;;35.77;11.83;;;17.30;99.90;;;;;;21175548;28;20031;-79
2021/09/10 19:58:10;;;;;;;15.73;12.00;;;17.50;99.90;;;;;;21175181;28;20027;-78
2021/09/10 20:08:12;;;;;;;19.67;12.40;;;17.40;99.90;;;;;;21143810;28;20032;-78
2021/09/10 20:18:13;;;;;;;18.55;13.13;;;17.40;99.90;;;;;;21165416;28;20063;-79
2021/09/10 20:28:14;;;;;;;15.40;10.60;;;17.50;99.90;;;;;;21191837;28;20027;-79
2021/09/10 20:38:15;;;;;;;14.80;10.37;;;17.50;99.90;;;;;;21175208;28;20027;-78
2021/09/10 20:48:16;;;;;;;13.50;10.43;;;17.40;99.90;;;;;;21173961;28;20062;-78
2021/09/10 20:58:17;;;;;;;18.87;9.23;;;17.20;99.90;;;;;;21153973;28;20028;-78
2021/09/10 21:08:19;;;;;;;14.63;7.93;;;17.00;99.90;;;;;;21154773;28;20035;-78
2021/09/10 21:18:20;;;;;;;11.63;8.68;;;16.90;99.90;;;;;;21174319;28;20505;-79
2021/09/10 21:28:21;;;;;;;15.07;9.23;;;16.70;99.90;;;;;;21151434;28;20035;-79
2021/09/10 21:38:22;;;;;;;13.60;9.03;;;16.60;99.90;;;;;;21170034;28;20038;-78
2021/09/10 21:48:26;;;;;;;11.20;8.60;;;16.60;99.90;;;;;;21169159;28;20123;-78
2021/09/10 21:58:27;;;;;;;12.20;9.07;;;16.60;99.90;;;;;;21170951;28;20085;-79
2021/09/10 22:08:28;;;;;;;13.43;9.47;;;16.60;99.90;;;;;;21181510;28;20063;-79
2021/09/10 22:18:29;;;;;;;13.80;9.87;;;16.40;99.90;;;;;;21184269;28;20105;-78
2021/09/10 22:28:29;;;;;;;17.60;11.27;;;16.30;99.90;;;;;;21182080;28;20028;-78
2021/09/10 22:38:31;;;;;;;16.93;11.57;;;16.10;99.90;;;;;;21185186;28;20040;-80
2021/09/10 22:48:31;;;;;;;15.00;9.37;;;16.20;99.90;;;;;;21153226;28;20038;-79
2021/09/10 22:58:32;;;;;;;15.53;9.23;;;16.40;99.90;;;;;;21169143;28;20027;-79
2021/09/10 23:08:33;;;;;;;17.53;10.10;;;16.40;99.90;;;;;;21167025;28;20032;-78
2021/09/10 23:18:35;;;;;;;11.47;8.57;;;16.20;99.90;;;;;;21163945;28;20076;-79
2021/09/10 23:28:35;;;;;;;;;;;16.30;99.90;;;;;;21176566;28;20028;-79
2021/09/10 23:38:36;;;;;;;20.80;10.68;;;16.30;99.90;;;;;;21175459;28;19919;-78
2021/09/10 23:48:37;;;;;;;13.57;9.40;;;16.10;99.90;;;;;;21055235;22;20120;-75
2021/09/10 23:58:38;;;;;;;16.83;12.10;;;16.00;99.90;;;;;;20956882;28;20028;-75
